Etusivu
METAR-TAF:

METAR-TAF

Lentoasemat :

Odate-Noshiro, Japani

Leveyspiiri: 40-11N, Pituuspiiri: 140-12E, korkeus merenpinnasta: 84 m

Tämänhetkinen sää

Tämä raportti tehtiin 11 tuntia ja 30 minuuttia sitten, kello 10.00 UTC
Tuuli 6 kn etelästä, vaihdellen etelän/kaakon ja lounaan välillä
Lämpötila 9°C
Kosteus 100%
Ilmanpaine 1008 hPa
Näkyvyys: 6000 m
Muutamia pilviä 300 ft:n korkeudessa
Hajanaisia pilviä 1000 ft:n korkeudessa
Hajonneita pilviä 4000 ft:n korkeudessa
heikkoja vesikuuroja

METAR: RJSR 181000Z 19006KT 160V230 6000 -SHRA FEW003 SCT010 BKN040 09/09 Q1008

Aika: 06:30 (21:30 UTC)


TAF: puuttuu

Säähavainnot ja -ennusteet yli 4000 lentoasemalta (METAR- ja TAF-raportit).

Käytössä olevat sääasemat on merkitty karttaan keltaisilla ja punaisilla pisteillä.

Aseta hiiri pisteen päälle nähdäksesi sääaseman nimen.

Klikkaa sitten nähdäksesi säähavainnot ja -ennusteet.

Kartan vaihtaminen: klikkaa mustalla rastilla varustettuja vihreitä pisteitä, niin voit zoomata sisään; viivalla varustettua vihreää pistettä, niin voit zoomata ulos tai vihreitä nuolia, niin pääset viereisille kartoille.


METAR-TAF: